createdAt,value
2023-03-23T15:57:56.449Z,94139.34
2023-03-23T16:00:23.082Z,94144.56
2023-03-23T16:02:50.115Z,94135.84
2023-03-23T16:05:16.563Z,94135.94
2023-03-23T16:07:43.873Z,94141.97
2023-03-23T16:10:10.439Z,94148.59
2023-03-23T16:12:38.078Z,94142.63
2023-03-23T16:15:05.617Z,94135.56
2023-03-23T16:17:32.052Z,94138.53
2023-03-23T16:19:58.492Z,94135.06
2023-03-23T16:22:24.925Z,94134.09
2023-03-23T16:24:51.322Z,94131.28
2023-03-23T16:27:18.578Z,94128.25
2023-03-23T16:30:02.871Z,94132.31
2023-03-23T16:32:30.527Z,94128.72
2023-03-23T16:34:57.424Z,94124.06
2023-03-23T16:37:23.901Z,94126.00
2023-03-23T16:39:50.316Z,94134.25
2023-03-23T16:42:16.743Z,94124.13
2023-03-23T16:44:43.161Z,94136.13
2023-03-23T16:47:09.617Z,94130.28
2023-03-23T16:49:36.010Z,94130.44
2023-03-23T16:52:02.665Z,94129.41
2023-03-23T16:54:29.256Z,94126.84
2023-03-23T16:56:56.948Z,94125.75
2023-03-23T16:59:24.450Z,94119.72
2023-03-23T17:01:52.069Z,94119.88
2023-03-23T17:04:19.656Z,94118.56
2023-03-23T17:06:47.208Z,94121.22
2023-03-23T17:09:14.810Z,94114.19
2023-03-23T17:11:41.400Z,94113.28
2023-03-23T17:14:07.865Z,94105.56
2023-03-23T17:16:34.365Z,94115.88
2023-03-23T17:19:01.201Z,94113.28
2023-03-23T17:21:28.802Z,94109.81
2023-03-23T17:23:56.391Z,94106.03
2023-03-23T17:26:22.982Z,94108.03
2023-03-23T17:28:49.498Z,94107.13
2023-03-23T17:31:16.060Z,94110.03
2023-03-23T17:33:42.615Z,94103.16
2023-03-23T17:36:09.452Z,94105.06
2023-03-23T17:38:35.942Z,94098.41
2023-03-23T17:41:03.579Z,94100.47
2023-03-23T17:43:32.200Z,94104.25
2023-03-23T17:45:59.844Z,94098.53
2023-03-23T17:48:27.439Z,94101.31
2023-03-23T17:50:53.894Z,94101.53
2023-03-23T17:53:20.618Z,94105.97
2023-03-23T17:55:47.196Z,94097.16
2023-03-23T17:58:14.808Z,94101.59
2023-03-23T18:00:42.502Z,94093.75
2023-03-23T18:03:09.981Z,94100.91
2023-03-23T18:05:36.870Z,94104.69
2023-03-23T18:08:03.285Z,94106.28
2023-03-23T18:10:29.837Z,94096.34
2023-03-23T18:12:57.307Z,94088.69
2023-03-23T18:15:28.527Z,94090.03
2023-03-23T18:17:56.553Z,94085.81
2023-03-23T18:20:24.120Z,94090.09
2023-03-23T18:22:51.787Z,94088.84
2023-03-23T18:25:18.620Z,94088.41
2023-03-23T18:27:45.904Z,94084.34
2023-03-23T18:30:13.498Z,94086.19
2023-03-23T18:32:41.101Z,94073.22
2023-03-23T18:35:09.748Z,94076.03
2023-03-23T18:37:36.204Z,94079.38
2023-03-23T18:40:02.714Z,94085.38
2023-03-23T18:42:29.157Z,94090.53
2023-03-23T18:44:56.103Z,94095.16
2023-03-23T18:47:22.630Z,94091.59
2023-03-23T18:49:49.052Z,94087.22
2023-03-23T18:52:15.554Z,94091.88
2023-03-23T18:54:42.018Z,94097.97
2023-03-23T18:57:09.070Z,94082.09
2023-03-23T18:59:36.659Z,94081.28
2023-03-23T19:02:04.278Z,94088.25
2023-03-23T19:04:31.869Z,94091.00
2023-03-23T19:06:58.807Z,94084.16
2023-03-23T19:09:26.014Z,94082.47
2023-03-23T19:11:53.630Z,94088.19
2023-03-23T19:14:21.209Z,94086.72
2023-03-23T19:16:47.796Z,94084.25
2023-03-23T19:19:15.420Z,94080.56
2023-03-23T19:21:46.864Z,94077.88
2023-03-23T19:24:14.659Z,94079.06
2023-03-23T19:26:42.466Z,94070.03
2023-03-23T19:29:25.963Z,94073.13
2023-03-23T19:31:54.451Z,94070.56
2023-03-23T19:34:21.045Z,94072.63
2023-03-23T19:36:55.100Z,94070.16
2023-03-23T19:39:30.308Z,94061.19
2023-03-23T19:41:59.004Z,94054.97
2023-03-23T19:44:26.478Z,94049.97
2023-03-23T19:46:55.136Z,94053.88
2023-03-23T19:49:24.674Z,94054.19
2023-03-23T19:51:52.344Z,94046.63
2023-03-23T19:54:35.908Z,94053.38
2023-03-23T19:57:03.681Z,94050.31
2023-03-23T19:59:32.713Z,94047.31
2023-03-23T20:02:00.781Z,94037.53
2023-03-23T20:04:28.626Z,94037.16
2023-03-23T20:06:56.991Z,94041.91
2023-03-23T20:09:26.025Z,94034.75
2023-03-23T20:11:53.590Z,94042.69
2023-03-23T20:14:20.778Z,94045.13
2023-03-23T20:16:48.286Z,94029.53
2023-03-23T20:19:16.473Z,94032.81
2023-03-23T20:21:43.485Z,94042.03
2023-03-23T20:24:11.060Z,94040.25
2023-03-23T20:26:38.667Z,94045.84
2023-03-23T20:29:08.029Z,94040.16
2023-03-23T20:31:36.649Z,94049.97
2023-03-23T20:34:04.428Z,94051.84
2023-03-23T20:36:31.317Z,94039.81
2023-03-23T20:39:00.110Z,94040.78
2023-03-23T20:41:28.213Z,94044.84
2023-03-23T20:43:55.826Z,94048.50
2023-03-23T20:46:25.438Z,94060.94
2023-03-23T20:48:52.502Z,94069.09
2023-03-23T20:51:19.631Z,94074.00
2023-03-23T20:53:48.599Z,94091.22
2023-03-23T20:56:20.079Z,94092.53
2023-03-23T20:58:49.837Z,94088.91
2023-03-23T21:01:17.125Z,94073.94
2023-03-23T21:03:44.661Z,94069.22
2023-03-23T21:06:13.867Z,94062.84
2023-03-23T21:08:41.814Z,94053.75
2023-03-23T21:11:09.422Z,94079.38
2023-03-23T21:13:37.002Z,94078.06
2023-03-23T21:16:04.573Z,94072.09
2023-03-23T21:18:32.184Z,94072.47
2023-03-23T21:21:01.564Z,94093.34
2023-03-23T21:23:28.368Z,94064.47
2023-03-23T21:25:57.135Z,94054.13
2023-03-23T21:28:26.097Z,94044.50
2023-03-23T21:30:53.147Z,94039.66
2023-03-23T21:33:21.775Z,94048.88
2023-03-23T21:35:49.397Z,94051.09
2023-03-23T21:38:16.948Z,94052.88
2023-03-23T21:40:44.810Z,94053.03
2023-03-23T21:43:13.129Z,94046.09
2023-03-23T21:45:40.840Z,94055.13
2023-03-23T21:48:09.879Z,94047.78
2023-03-23T21:50:37.911Z,94030.28
2023-03-23T21:53:05.504Z,94027.81
2023-03-23T21:55:31.963Z,94017.38
2023-03-23T21:57:58.670Z,94019.84
2023-03-23T22:00:26.274Z,94015.09
2023-03-23T22:02:54.928Z,94017.44
2023-03-23T22:05:22.457Z,94028.31
2023-03-23T22:07:51.071Z,94024.97
2023-03-23T22:10:17.888Z,94028.78
2023-03-23T22:12:44.379Z,94037.69
2023-03-23T22:15:11.873Z,94026.59
2023-03-23T22:17:39.504Z,94027.94
2023-03-23T22:20:07.054Z,94015.69
2023-03-23T22:22:34.621Z,94016.19
2023-03-23T22:25:02.211Z,94005.69
2023-03-23T22:27:31.254Z,94000.66
2023-03-23T22:29:58.413Z,94001.53
2023-03-23T22:32:26.015Z,94002.28
2023-03-23T22:34:53.605Z,93988.66
2023-03-23T22:37:21.180Z,94001.03
2023-03-23T22:39:47.757Z,94013.69
2023-03-23T22:42:15.388Z,93996.22
2023-03-23T22:44:42.969Z,93978.88
2023-03-23T22:47:10.560Z,93985.06
2023-03-23T22:49:38.147Z,93970.09
2023-03-23T22:52:04.723Z,93986.44
2023-03-23T22:54:32.353Z,93998.13
2023-03-23T22:56:59.995Z,93987.91
2023-03-23T22:59:27.537Z,93957.69
2023-03-23T23:01:55.112Z,93961.16
2023-03-23T23:04:22.834Z,93973.22
2023-03-23T23:06:55.373Z,93971.59
2023-03-23T23:09:26.946Z,93976.53
2023-03-23T23:11:54.532Z,93984.34
2023-03-23T23:14:23.113Z,93983.63
2023-03-23T23:16:49.880Z,93980.44
2023-03-23T23:19:17.308Z,93973.56
2023-03-23T23:21:45.922Z,93976.03
2023-03-23T23:24:14.503Z,93976.72
2023-03-23T23:26:41.097Z,93991.69
2023-03-23T23:29:08.682Z,93998.63
2023-03-23T23:31:37.289Z,93988.03
2023-03-23T23:34:05.870Z,93998.69
2023-03-23T23:36:34.581Z,93991.44
2023-03-23T23:39:02.181Z,93993.69
2023-03-23T23:41:32.753Z,93997.22
2023-03-23T23:44:01.334Z,93995.56
2023-03-23T23:46:30.580Z,93987.56
2023-03-23T23:48:57.550Z,93997.38
2023-03-23T23:51:24.200Z,93994.34
2023-03-23T23:53:53.236Z,94003.56
2023-03-23T23:56:20.357Z,94008.72
2023-03-23T23:58:47.962Z,94011.00
